Time,TemperatureF,DewpointF,PressureIn,WindDirection,WindDirectionDegrees,WindSpeedMPH,WindSpeedGustMPH,Humidity,HourlyPrecipIn,Conditions,Clouds,dailyrainin,SoftwareType,DateUTC
2013-09-26 00:02:00,52.3,24.8,31.55,SE,135,5.0,8.0,34,0.00,,,0.00,meteohub,2013-09-26 06:02:00,
2013-09-26 00:07:00,52.3,24.8,31.55,SE,135,5.0,7.0,34,0.00,,,0.00,meteohub,2013-09-26 06:07:00,
2013-09-26 00:12:00,52.2,24.6,31.55,South,180,4.0,5.0,34,0.00,,,0.00,meteohub,2013-09-26 06:12:00,
2013-09-26 00:17:00,52.0,25.2,31.55,NW,315,4.0,5.0,35,0.00,,,0.00,meteohub,2013-09-26 06:17:00,
2013-09-26 00:22:00,51.8,24.3,31.55,SE,135,2.0,6.0,34,0.00,,,0.00,meteohub,2013-09-26 06:22:00,
2013-09-26 00:27:00,51.4,24.6,31.55,SE,135,2.0,6.0,35,0.00,,,0.00,meteohub,2013-09-26 06:27:00,
2013-09-26 00:32:00,51.1,25.7,31.55,NW,315,2.0,6.0,37,0.00,,,0.00,meteohub,2013-09-26 06:32:00,
2013-09-26 00:37:00,50.4,24.4,31.55,South,180,2.0,4.0,36,0.00,,,0.00,meteohub,2013-09-26 06:37:00,
2013-09-26 00:42:00,50.4,24.4,31.55,NW,315,4.0,6.0,36,0.00,,,0.00,meteohub,2013-09-26 06:42:00,
2013-09-26 00:47:00,49.8,25.2,31.55,South,180,2.0,6.0,38,0.00,,,0.00,meteohub,2013-09-26 06:47:00,
2013-09-26 00:52:00,49.5,25.5,31.55,East,90,3.0,6.0,39,0.00,,,0.00,meteohub,2013-09-26 06:52:00,
2013-09-26 00:57:00,49.8,25.2,31.55,SW,225,2.0,11.0,38,0.00,,,0.00,meteohub,2013-09-26 06:57:00,
2013-09-26 01:02:00,49.5,25.5,31.55,NNE,23,2.0,11.0,39,0.00,,,0.00,meteohub,2013-09-26 07:02:00,
2013-09-26 01:07:00,49.5,25.0,31.55,SSE,158,4.0,11.0,38,0.00,,,0.00,meteohub,2013-09-26 07:07:00,
2013-09-26 01:12:00,49.8,24.6,31.55,SE,135,9.0,9.0,37,0.00,,,0.00,meteohub,2013-09-26 07:12:00,
2013-09-26 01:17:00,50.4,23.7,31.55,ENE,68,1.0,9.0,35,0.00,,,0.00,meteohub,2013-09-26 07:17:00,
2013-09-26 01:22:00,50.0,23.4,31.55,SW,225,1.0,9.0,35,0.00,,,0.00,meteohub,2013-09-26 07:22:00,
2013-09-26 01:27:00,49.6,24.4,31.56,West,270,2.0,9.0,37,0.00,,,0.00,meteohub,2013-09-26 07:27:00,
2013-09-26 01:32:00,48.9,23.7,31.55,ESE,113,4.0,4.0,37,0.00,,,0.00,meteohub,2013-09-26 07:32:00,
2013-09-26 01:37:00,48.9,23.7,31.55,NW,315,2.0,7.0,37,0.00,,,0.00,meteohub,2013-09-26 07:37:00,
2013-09-26 01:42:00,48.6,23.5,31.56,North,0,2.0,7.0,37,0.00,,,0.00,meteohub,2013-09-26 07:42:00,
2013-09-26 01:47:00,47.8,24.1,31.56,NE,45,0.0,7.0,39,0.00,,,0.00,meteohub,2013-09-26 07:47:00,
2013-09-26 01:52:00,46.9,24.4,31.56,West,270,2.0,2.0,41,0.00,,,0.00,meteohub,2013-09-26 07:52:00,
2013-09-26 01:57:00,45.7,24.4,31.56,SE,135,2.0,3.0,43,0.00,,,0.00,meteohub,2013-09-26 07:57:00,
2013-09-26 02:02:00,45.1,24.4,31.56,SSE,158,3.0,3.0,44,0.00,,,0.00,meteohub,2013-09-26 08:02:00,
2013-09-26 02:07:00,45.1,24.4,31.56,SSE,158,3.0,3.0,44,0.00,,,0.00,meteohub,2013-09-26 08:07:00,
2013-09-26 02:12:00,43.7,25.3,31.56,South,180,4.0,4.0,48,0.00,,,0.00,meteohub,2013-09-26 08:12:00,
2013-09-26 02:17:00,43.5,26.1,31.56,NE,45,4.0,5.0,50,0.00,,,0.00,meteohub,2013-09-26 08:17:00,
2013-09-26 02:22:00,43.9,26.4,31.56,NW,315,3.0,5.0,50,0.00,,,0.00,meteohub,2013-09-26 08:22:00,
2013-09-26 02:27:00,43.9,25.9,31.56,SW,225,2.0,5.0,49,0.00,,,0.00,meteohub,2013-09-26 08:27:00,
2013-09-26 02:32:00,43.3,25.5,31.56,North,0,0.0,4.0,49,0.00,,,0.00,meteohub,2013-09-26 08:32:00,
2013-09-26 02:37:00,42.8,25.9,31.56,SW,225,2.0,3.0,51,0.00,,,0.00,meteohub,2013-09-26 08:37:00,
2013-09-26 02:43:00,42.1,26.2,31.56,NW,315,2.0,3.0,53,0.00,,,0.00,meteohub,2013-09-26 08:43:00,
2013-09-26 02:48:00,41.7,25.9,31.56,SW,225,2.0,5.0,53,0.00,,,0.00,meteohub,2013-09-26 08:48:00,
2013-09-26 02:53:00,41.2,25.9,31.56,North,0,2.0,5.0,54,0.00,,,0.00,meteohub,2013-09-26 08:53:00,
2013-09-26 02:58:00,41.4,25.9,31.56,West,270,2.0,5.0,54,0.00,,,0.00,meteohub,2013-09-26 08:58:00,
2013-09-26 03:04:00,41.5,25.7,31.56,West,270,3.0,8.0,53,0.00,,,0.00,meteohub,2013-09-26 09:04:00,
2013-09-26 03:09:00,41.5,26.1,31.56,NE,45,4.0,8.0,54,0.00,,,0.00,meteohub,2013-09-26 09:09:00,
2013-09-26 03:14:00,41.4,25.9,31.57,SW,225,2.0,8.0,54,0.00,,,0.00,meteohub,2013-09-26 09:14:00,
2013-09-26 03:19:00,41.5,25.7,31.56,SW,225,1.0,4.0,53,0.00,,,0.00,meteohub,2013-09-26 09:19:00,
2013-09-26 03:24:00,41.7,25.9,31.56,ESE,113,3.0,4.0,53,0.00,,,0.00,meteohub,2013-09-26 09:24:00,
2013-09-26 03:29:00,42.4,25.2,31.56,East,90,4.0,4.0,50,0.00,,,0.00,meteohub,2013-09-26 09:29:00,
2013-09-26 03:35:00,43.7,24.3,31.57,West,270,4.0,5.0,46,0.00,,,0.00,meteohub,2013-09-26 09:35:00,
2013-09-26 03:40:00,44.2,24.3,31.57,West,270,4.0,5.0,45,0.00,,,0.00,meteohub,2013-09-26 09:40:00,
2013-09-26 03:45:00,43.7,23.7,31.56,West,270,2.0,7.0,45,0.00,,,0.00,meteohub,2013-09-26 09:45:00,
2013-09-26 03:50:00,42.8,23.4,31.57,South,180,2.0,7.0,46,0.00,,,0.00,meteohub,2013-09-26 09:50:00,
2013-09-26 03:55:00,43.0,23.2,31.56,SW,225,2.0,4.0,45,0.00,,,0.00,meteohub,2013-09-26 09:55:00,
2013-09-26 04:00:00,43.0,23.2,31.56,South,180,2.0,3.0,45,0.00,,,0.00,meteohub,2013-09-26 10:00:00,
2013-09-26 04:06:00,43.0,23.2,31.57,South,180,2.0,7.0,45,0.00,,,0.00,meteohub,2013-09-26 10:06:00,
2013-09-26 04:11:00,43.9,22.8,31.57,South,180,2.0,7.0,43,0.00,,,0.00,meteohub,2013-09-26 10:11:00,
2013-09-26 04:16:00,44.4,23.4,31.57,East,90,3.0,4.0,43,0.00,,,0.00,meteohub,2013-09-26 10:16:00,
2013-09-26 04:21:00,45.1,22.8,31.57,SW,225,2.0,8.0,41,0.00,,,0.00,meteohub,2013-09-26 10:21:00,
2013-09-26 04:26:00,45.3,23.0,31.56,NW,315,2.0,8.0,41,0.00,,,0.00,meteohub,2013-09-26 10:26:00,
2013-09-26 04:32:00,45.3,21.2,31.57,South,180,3.0,6.0,38,0.00,,,0.00,meteohub,2013-09-26 10:32:00,
2013-09-26 04:37:00,45.7,20.3,31.57,SE,135,3.0,8.0,36,0.00,,,0.00,meteohub,2013-09-26 10:37:00,
2013-09-26 04:42:00,46.2,19.4,31.57,SE,135,2.0,8.0,34,0.00,,,0.00,meteohub,2013-09-26 10:42:00,
2013-09-26 04:47:00,46.4,20.3,31.56,SE,135,4.0,7.0,35,0.00,,,0.00,meteohub,2013-09-26 10:47:00,
2013-09-26 04:52:00,46.4,20.3,31.57,SE,135,5.0,6.0,35,0.00,,,0.00,meteohub,2013-09-26 10:52:00,
2013-09-26 04:57:00,46.8,19.9,31.57,West,270,4.0,7.0,34,0.00,,,0.00,meteohub,2013-09-26 10:57:00,
2013-09-26 05:02:00,46.9,19.4,31.56,East,90,4.0,8.0,33,0.00,,,0.00,meteohub,2013-09-26 11:02:00,
2013-09-26 05:07:00,47.1,18.7,31.57,South,180,4.0,8.0,32,0.00,,,0.00,meteohub,2013-09-26 11:07:00,
2013-09-26 05:12:00,47.3,19.6,31.56,ESE,113,3.0,8.0,33,0.00,,,0.00,meteohub,2013-09-26 11:12:00,
2013-09-26 05:17:00,46.9,19.4,31.57,SE,135,8.0,8.0,33,0.00,,,0.00,meteohub,2013-09-26 11:17:00,
2013-09-26 05:22:00,46.9,19.4,31.57,South,180,4.0,8.0,33,0.00,,,0.00,meteohub,2013-09-26 11:22:00,
2013-09-26 05:27:00,46.9,19.4,31.57,South,180,3.0,11.0,33,0.00,,,0.00,meteohub,2013-09-26 11:27:00,
2013-09-26 05:32:00,46.9,19.4,31.57,South,180,6.0,11.0,33,0.00,,,0.00,meteohub,2013-09-26 11:32:00,
2013-09-26 05:37:00,46.9,18.7,31.57,NE,45,6.0,11.0,32,0.00,,,0.00,meteohub,2013-09-26 11:37:00,
2013-09-26 05:42:00,47.1,18.0,31.57,SE,135,5.0,11.0,31,0.00,,,0.00,meteohub,2013-09-26 11:42:00,
2013-09-26 05:47:00,46.9,17.8,31.57,East,90,4.0,11.0,31,0.00,,,0.00,meteohub,2013-09-26 11:47:00,
2013-09-26 05:52:00,46.9,19.4,31.57,South,180,5.0,9.0,33,0.00,,,0.00,meteohub,2013-09-26 11:52:00,
2013-09-26 05:57:00,46.6,19.0,31.58,East,90,6.0,9.0,33,0.00,,,0.00,meteohub,2013-09-26 11:57:00,
2013-09-26 06:02:00,46.4,19.6,31.58,SE,135,6.0,8.0,34,0.00,,,0.00,meteohub,2013-09-26 12:02:00,
2013-09-26 06:07:00,46.4,19.6,31.58,SE,135,6.0,8.0,34,0.00,,,0.00,meteohub,2013-09-26 12:07:00,
2013-09-26 06:12:00,46.9,17.8,31.58,SE,135,5.0,8.0,31,0.00,,,0.00,meteohub,2013-09-26 12:12:00,
2013-09-26 06:17:00,46.8,17.8,31.58,SE,135,11.0,11.0,31,0.00,,,0.00,meteohub,2013-09-26 12:17:00,
2013-09-26 06:22:00,46.4,17.4,31.58,South,180,5.0,11.0,31,0.00,,,0.00,meteohub,2013-09-26 12:22:00,
2013-09-26 06:27:00,46.4,17.4,31.58,SE,135,5.0,11.0,31,0.00,,,0.00,meteohub,2013-09-26 12:27:00,
2013-09-26 06:32:00,45.9,16.9,31.58,South,180,7.0,11.0,31,0.00,,,0.00,meteohub,2013-09-26 12:32:00,
2013-09-26 06:37:00,46.2,16.5,31.58,SE,135,5.0,9.0,30,0.00,,,0.00,meteohub,2013-09-26 12:37:00,
2013-09-26 06:42:00,46.4,17.4,31.58,SE,135,4.0,11.0,31,0.00,,,0.00,meteohub,2013-09-26 12:42:00,
2013-09-26 06:47:00,46.4,17.4,31.58,SW,225,5.0,11.0,31,0.00,,,0.00,meteohub,2013-09-26 12:47:00,
2013-09-26 06:52:00,46.2,15.6,31.59,SE,135,7.0,11.0,29,0.00,,,0.00,meteohub,2013-09-26 12:52:00,
2013-09-26 06:57:00,46.0,15.6,31.59,South,180,6.0,11.0,29,0.00,,,0.00,meteohub,2013-09-26 12:57:00,
2013-09-26 07:02:00,46.6,16.9,31.59,East,90,12.0,12.0,30,0.00,,,0.00,meteohub,2013-09-26 13:02:00,
2013-09-26 07:07:00,46.9,16.3,31.59,East,90,11.0,15.0,29,0.00,,,0.00,meteohub,2013-09-26 13:07:00,
2013-09-26 07:12:00,47.1,16.5,31.59,East,90,9.0,15.0,29,0.00,,,0.00,meteohub,2013-09-26 13:12:00,
2013-09-26 07:17:00,46.8,16.2,31.59,South,180,8.0,13.0,29,0.00,,,0.00,meteohub,2013-09-26 13:17:00,
2013-09-26 07:22:00,46.4,15.8,31.60,East,90,9.0,11.0,29,0.00,,,0.00,meteohub,2013-09-26 13:22:00,
2013-09-26 07:27:00,46.6,15.3,31.59,SE,135,4.0,11.0,28,0.00,,,0.00,meteohub,2013-09-26 13:27:00,
2013-09-26 07:32:00,46.8,15.4,31.59,South,180,6.0,11.0,28,0.00,,,0.00,meteohub,2013-09-26 13:32:00,
2013-09-26 07:37:00,47.1,15.6,31.59,South,180,8.0,11.0,28,0.00,,,0.00,meteohub,2013-09-26 13:37:00,
2013-09-26 07:42:00,47.5,16.0,31.59,SE,135,10.0,11.0,28,0.00,,,0.00,meteohub,2013-09-26 13:42:00,
2013-09-26 07:47:00,47.7,16.2,31.59,SE,135,11.0,12.0,28,0.00,,,0.00,meteohub,2013-09-26 13:47:00,
2013-09-26 07:52:00,47.8,16.3,31.59,SE,135,6.0,12.0,28,0.00,,,0.00,meteohub,2013-09-26 13:52:00,
2013-09-26 07:57:00,48.2,15.8,31.59,South,180,7.0,12.0,27,0.00,,,0.00,meteohub,2013-09-26 13:57:00,
2013-09-26 08:02:00,48.4,15.1,31.59,SE,135,9.0,11.0,26,0.00,,,0.00,meteohub,2013-09-26 14:02:00,
2013-09-26 08:07:00,48.4,15.1,31.59,SE,135,9.0,10.0,26,0.00,,,0.00,meteohub,2013-09-26 14:07:00,
2013-09-26 08:12:00,49.1,16.5,31.59,South,180,5.0,10.0,27,0.00,,,0.00,meteohub,2013-09-26 14:12:00,
2013-09-26 08:17:00,49.3,17.6,31.59,SE,135,3.0,9.0,28,0.00,,,0.00,meteohub,2013-09-26 14:17:00,
2013-09-26 08:22:00,49.5,16.9,31.59,SE,135,3.0,9.0,27,0.00,,,0.00,meteohub,2013-09-26 14:22:00,
2013-09-26 08:27:00,49.8,17.2,31.59,SW,225,4.0,6.0,27,0.00,,,0.00,meteohub,2013-09-26 14:27:00,
2013-09-26 08:32:00,50.0,16.5,31.59,West,270,3.0,9.0,26,0.00,,,0.00,meteohub,2013-09-26 14:32:00,
2013-09-26 08:37:00,50.7,17.1,31.59,North,0,4.0,10.0,26,0.00,,,0.00,meteohub,2013-09-26 14:37:00,
2013-09-26 08:42:00,52.0,16.3,31.59,SSW,203,3.0,10.0,24,0.00,,,0.00,meteohub,2013-09-26 14:42:00,
2013-09-26 08:47:00,52.9,17.1,31.59,SSE,158,5.0,10.0,24,0.00,,,0.00,meteohub,2013-09-26 14:47:00,
2013-09-26 08:52:00,53.8,17.8,31.59,East,90,5.0,6.0,24,0.00,,,0.00,meteohub,2013-09-26 14:52:00,
2013-09-26 08:57:00,54.0,18.0,31.59,East,90,6.0,8.0,24,0.00,,,0.00,meteohub,2013-09-26 14:57:00,
2013-09-26 09:02:00,54.5,18.5,31.59,SSE,158,4.0,8.0,24,0.00,,,0.00,meteohub,2013-09-26 15:02:00,
2013-09-26 09:07:00,55.0,18.9,31.59,SE,135,5.0,8.0,24,0.00,,,0.00,meteohub,2013-09-26 15:07:00,
2013-09-26 09:12:00,55.4,20.1,31.59,East,90,6.0,7.0,25,0.00,,,0.00,meteohub,2013-09-26 15:12:00,
2013-09-26 09:17:00,55.4,20.1,31.59,North,0,4.0,9.0,25,0.00,,,0.00,meteohub,2013-09-26 15:17:00,
2013-09-26 09:22:00,55.8,20.5,31.59,SE,135,6.0,9.0,25,0.00,,,0.00,meteohub,2013-09-26 15:22:00,
2013-09-26 09:27:00,55.9,20.7,31.59,NE,45,5.0,9.0,25,0.00,,,0.00,meteohub,2013-09-26 15:27:00,
2013-09-26 09:32:00,56.3,20.8,31.60,West,270,5.0,7.0,25,0.00,,,0.00,meteohub,2013-09-26 15:32:00,
2013-09-26 09:37:00,57.2,20.7,31.60,East,90,6.0,7.0,24,0.00,,,0.00,meteohub,2013-09-26 15:37:00,
2013-09-26 09:42:00,57.2,20.7,31.60,East,90,7.0,7.0,24,0.00,,,0.00,meteohub,2013-09-26 15:42:00,
2013-09-26 09:47:00,57.7,21.2,31.59,SE,135,5.0,8.0,24,0.00,,,0.00,meteohub,2013-09-26 15:47:00,
2013-09-26 09:52:00,58.1,21.6,31.60,East,90,4.0,8.0,24,0.00,,,0.00,meteohub,2013-09-26 15:52:00,
2013-09-26 09:57:00,57.9,21.4,31.59,SE,135,6.0,8.0,24,0.00,,,0.00,meteohub,2013-09-26 15:57:00,
2013-09-26 10:02:00,57.9,21.4,31.59,SE,135,6.0,8.0,24,0.00,,,0.00,meteohub,2013-09-26 16:02:00,
2013-09-26 10:07:00,57.9,21.4,31.59,SE,135,6.0,8.0,24,0.00,,,0.00,meteohub,2013-09-26 16:07:00,
2013-09-26 10:12:00,59.0,21.2,31.60,East,90,5.0,7.0,23,0.00,,,0.00,meteohub,2013-09-26 16:12:00,
2013-09-26 10:17:00,59.0,21.2,31.59,South,180,4.0,8.0,23,0.00,,,0.00,meteohub,2013-09-26 16:17:00,
2013-09-26 10:22:00,59.4,21.6,31.59,SE,135,4.0,8.0,23,0.00,,,0.00,meteohub,2013-09-26 16:22:00,
2013-09-26 10:27:00,59.5,21.7,31.59,South,180,6.0,7.0,23,0.00,,,0.00,meteohub,2013-09-26 16:27:00,
2013-09-26 10:32:00,59.5,21.7,31.60,South,180,4.0,10.0,23,0.00,,,0.00,meteohub,2013-09-26 16:32:00,
2013-09-26 10:37:00,59.5,21.7,31.59,SE,135,5.0,11.0,23,0.00,,,0.00,meteohub,2013-09-26 16:37:00,
2013-09-26 10:42:00,59.9,21.9,31.59,SE,135,5.0,11.0,23,0.00,,,0.00,meteohub,2013-09-26 16:42:00,
2013-09-26 10:47:00,60.4,22.5,31.59,SE,135,8.0,11.0,23,0.00,,,0.00,meteohub,2013-09-26 16:47:00,
2013-09-26 10:52:00,61.0,20.8,31.59,South,180,6.0,8.0,21,0.00,,,0.00,meteohub,2013-09-26 16:52:00,
2013-09-26 10:57:00,61.2,20.8,31.59,East,90,4.0,8.0,21,0.00,,,0.00,meteohub,2013-09-26 16:57:00,
2013-09-26 11:02:00,62.1,22.8,31.59,East,90,7.0,8.0,22,0.00,,,0.00,meteohub,2013-09-26 17:02:00,
2013-09-26 11:07:00,61.9,21.6,31.59,SW,225,8.0,8.0,21,0.00,,,0.00,meteohub,2013-09-26 17:07:00,
2013-09-26 11:12:00,61.7,21.4,31.59,ESE,113,11.0,11.0,21,0.00,,,0.00,meteohub,2013-09-26 17:12:00,
2013-09-26 11:17:00,61.7,21.4,31.59,East,90,7.0,11.0,21,0.00,,,0.00,meteohub,2013-09-26 17:17:00,
2013-09-26 11:22:00,61.7,22.5,31.59,SE,135,8.0,11.0,22,0.00,,,0.00,meteohub,2013-09-26 17:22:00,
2013-09-26 11:27:00,61.7,22.5,31.59,East,90,5.0,11.0,22,0.00,,,0.00,meteohub,2013-09-26 17:27:00,
2013-09-26 11:32:00,61.5,22.3,31.59,East,90,8.0,12.0,22,0.00,,,0.00,meteohub,2013-09-26 17:32:00,
2013-09-26 11:37:00,61.9,22.6,31.59,SE,135,11.0,12.0,22,0.00,,,0.00,meteohub,2013-09-26 17:37:00,
2013-09-26 11:42:00,61.9,22.6,31.59,NE,45,8.0,13.0,22,0.00,,,0.00,meteohub,2013-09-26 17:42:00,
2013-09-26 11:47:00,62.2,23.0,31.59,SE,135,6.0,13.0,22,0.00,,,0.00,meteohub,2013-09-26 17:47:00,
2013-09-26 11:52:00,62.4,23.0,31.58,South,180,11.0,13.0,22,0.00,,,0.00,meteohub,2013-09-26 17:52:00,
2013-09-26 11:57:00,62.1,21.7,31.58,NE,45,8.0,11.0,21,0.00,,,0.00,meteohub,2013-09-26 17:57:00,
2013-09-26 12:02:00,61.9,21.6,31.58,SE,135,8.0,11.0,21,0.00,,,0.00,meteohub,2013-09-26 18:02:00,
2013-09-26 12:07:00,61.9,21.6,31.58,SE,135,8.0,11.0,21,0.00,,,0.00,meteohub,2013-09-26 18:07:00,
2013-09-26 12:12:00,63.1,21.4,31.58,East,90,8.0,10.0,20,0.00,,,0.00,meteohub,2013-09-26 18:12:00,
2013-09-26 12:17:00,63.9,20.8,31.58,SSE,158,7.0,10.0,19,0.00,,,0.00,meteohub,2013-09-26 18:17:00,
2013-09-26 12:22:00,64.4,19.9,31.58,East,90,11.0,11.0,18,0.00,,,0.00,meteohub,2013-09-26 18:22:00,
2013-09-26 12:28:00,64.0,22.1,31.58,SW,225,6.0,11.0,20,0.00,,,0.00,meteohub,2013-09-26 18:28:00,
2013-09-26 12:33:00,63.3,22.6,31.58,East,90,6.0,11.0,21,0.00,,,0.00,meteohub,2013-09-26 18:33:00,
2013-09-26 12:38:00,62.8,22.3,31.58,East,90,9.0,15.0,21,0.00,,,0.00,meteohub,2013-09-26 18:38:00,
2013-09-26 12:43:00,62.6,22.1,31.57,East,90,5.0,15.0,21,0.00,,,0.00,meteohub,2013-09-26 18:43:00,
2013-09-26 12:48:00,63.1,22.6,31.57,East,90,11.0,15.0,21,0.00,,,0.00,meteohub,2013-09-26 18:48:00,
2013-09-26 12:54:00,63.9,23.2,31.57,East,90,10.0,15.0,21,0.00,,,0.00,meteohub,2013-09-26 18:54:00,
2013-09-26 12:59:00,64.0,23.4,31.57,SSW,203,5.0,11.0,21,0.00,,,0.00,meteohub,2013-09-26 18:59:00,
2013-09-26 13:04:00,64.8,22.8,31.57,West,270,5.0,15.0,20,0.00,,,0.00,meteohub,2013-09-26 19:04:00,
2013-09-26 13:09:00,65.1,21.7,31.57,SE,135,6.0,15.0,19,0.00,,,0.00,meteohub,2013-09-26 19:09:00,
2013-09-26 13:14:00,65.8,22.5,31.57,East,90,9.0,15.0,19,0.00,,,0.00,meteohub,2013-09-26 19:14:00,
2013-09-26 13:19:00,65.3,21.9,31.56,East,90,6.0,11.0,19,0.00,,,0.00,meteohub,2013-09-26 19:19:00,
2013-09-26 13:25:00,66.2,20.1,31.56,SE,135,14.0,14.0,17,0.00,,,0.00,meteohub,2013-09-26 19:25:00,
2013-09-26 13:30:00,66.0,21.2,31.57,NE,45,8.0,14.0,18,0.00,,,0.00,meteohub,2013-09-26 19:30:00,
2013-09-26 13:35:00,65.8,21.2,31.56,SE,135,11.0,14.0,18,0.00,,,0.00,meteohub,2013-09-26 19:35:00,
2013-09-26 13:40:00,66.0,21.2,31.56,SW,225,8.0,14.0,18,0.00,,,0.00,meteohub,2013-09-26 19:40:00,
2013-09-26 13:45:00,66.0,21.2,31.56,South,180,4.0,12.0,18,0.00,,,0.00,meteohub,2013-09-26 19:45:00,
2013-09-26 13:51:00,66.7,20.5,31.56,South,180,9.0,12.0,17,0.00,,,0.00,meteohub,2013-09-26 19:51:00,
2013-09-26 13:56:00,65.7,19.6,31.56,SE,135,8.0,12.0,17,0.00,,,0.00,meteohub,2013-09-26 19:56:00,
2013-09-26 14:01:00,65.7,19.6,31.56,South,180,14.0,16.0,17,0.00,,,0.00,meteohub,2013-09-26 20:01:00,
2013-09-26 14:06:00,65.7,19.6,31.57,South,180,14.0,16.0,17,0.00,,,0.00,meteohub,2013-09-26 20:06:00,
2013-09-26 14:11:00,64.6,21.4,31.56,SE,135,10.0,16.0,19,0.00,,,0.00,meteohub,2013-09-26 20:11:00,
2013-09-26 14:17:00,64.4,21.2,31.56,SW,225,7.0,15.0,19,0.00,,,0.00,meteohub,2013-09-26 20:17:00,
2013-09-26 14:22:00,65.1,20.5,31.56,South,180,6.0,15.0,18,0.00,,,0.00,meteohub,2013-09-26 20:22:00,
2013-09-26 14:27:00,65.1,19.2,31.56,SSE,158,10.0,14.0,17,0.00,,,0.00,meteohub,2013-09-26 20:27:00,
2013-09-26 14:32:00,64.9,20.5,31.56,South,180,8.0,18.0,18,0.00,,,0.00,meteohub,2013-09-26 20:32:00,
2013-09-26 14:37:00,64.8,18.9,31.56,East,90,14.0,18.0,17,0.00,,,0.00,meteohub,2013-09-26 20:37:00,
2013-09-26 14:42:00,64.2,19.8,31.56,SW,225,7.0,18.0,18,0.00,,,0.00,meteohub,2013-09-26 20:42:00,
2013-09-26 14:48:00,64.9,19.0,31.56,NE,45,3.0,14.0,17,0.00,,,0.00,meteohub,2013-09-26 20:48:00,
2013-09-26 14:53:00,65.5,19.6,31.56,SW,225,8.0,14.0,17,0.00,,,0.00,meteohub,2013-09-26 20:53:00,
2013-09-26 14:58:00,65.5,19.6,31.55,SE,135,2.0,14.0,17,0.00,,,0.00,meteohub,2013-09-26 20:58:00,
2013-09-26 15:03:00,66.0,19.9,31.55,West,270,8.0,13.0,17,0.00,,,0.00,meteohub,2013-09-26 21:03:00,
2013-09-26 15:09:00,66.4,18.9,31.55,SW,225,5.0,14.0,16,0.00,,,0.00,meteohub,2013-09-26 21:09:00,
2013-09-26 15:14:00,66.6,19.0,31.55,SSW,203,8.0,14.0,16,0.00,,,0.00,meteohub,2013-09-26 21:14:00,
2013-09-26 15:19:00,66.2,18.7,31.55,NW,315,15.0,15.0,16,0.00,,,0.00,meteohub,2013-09-26 21:19:00,
2013-09-26 15:24:00,65.8,19.8,31.55,NE,45,15.0,15.0,17,0.00,,,0.00,meteohub,2013-09-26 21:24:00,
2013-09-26 15:29:00,65.5,19.6,31.55,SE,135,11.0,15.0,17,0.00,,,0.00,meteohub,2013-09-26 21:29:00,
2013-09-26 15:35:00,65.7,19.6,31.55,South,180,10.0,15.0,17,0.00,,,0.00,meteohub,2013-09-26 21:35:00,
2013-09-26 15:40:00,65.3,19.4,31.55,SE,135,7.0,18.0,17,0.00,,,0.00,meteohub,2013-09-26 21:40:00,
2013-09-26 15:45:00,65.5,19.6,31.55,NE,45,11.0,18.0,17,0.00,,,0.00,meteohub,2013-09-26 21:45:00,
2013-09-26 15:50:00,65.1,19.2,31.55,NE,45,5.0,18.0,17,0.00,,,0.00,meteohub,2013-09-26 21:50:00,
2013-09-26 15:55:00,65.3,19.4,31.55,SSE,158,10.0,12.0,17,0.00,,,0.00,meteohub,2013-09-26 21:55:00,
2013-09-26 16:01:00,65.5,19.6,31.55,NE,45,14.0,14.0,17,0.00,,,0.00,meteohub,2013-09-26 22:01:00,
2013-09-26 16:06:00,65.5,19.6,31.55,NE,45,14.0,14.0,17,0.00,,,0.00,meteohub,2013-09-26 22:06:00,
2013-09-26 16:11:00,65.1,19.2,31.54,NE,45,5.0,14.0,17,0.00,,,0.00,meteohub,2013-09-26 22:11:00,
2013-09-26 16:16:00,64.8,18.9,31.54,East,90,11.0,15.0,17,0.00,,,0.00,meteohub,2013-09-26 22:16:00,
2013-09-26 16:21:00,63.9,19.6,31.55,ESE,113,11.0,21.0,18,0.00,,,0.00,meteohub,2013-09-26 22:21:00,
2013-09-26 16:26:00,63.3,19.0,31.55,SE,135,10.0,21.0,18,0.00,,,0.00,meteohub,2013-09-26 22:26:00,
2013-09-26 16:32:00,63.1,18.9,31.55,South,180,14.0,23.0,18,0.00,,,0.00,meteohub,2013-09-26 22:32:00,
2013-09-26 16:37:00,63.0,18.9,31.55,South,180,12.0,23.0,18,0.00,,,0.00,meteohub,2013-09-26 22:37:00,
2013-09-26 16:42:00,63.0,18.9,31.55,East,90,19.0,22.0,18,0.00,,,0.00,meteohub,2013-09-26 22:42:00,
2013-09-26 16:47:00,62.6,18.5,31.55,NE,45,11.0,19.0,18,0.00,,,0.00,meteohub,2013-09-26 22:47:00,
2013-09-26 16:52:00,62.4,19.6,31.55,SSW,203,4.0,19.0,19,0.00,,,0.00,meteohub,2013-09-26 22:52:00,
2013-09-26 16:57:00,62.6,18.5,31.55,SE,135,11.0,19.0,18,0.00,,,0.00,meteohub,2013-09-26 22:57:00,
2013-09-26 17:02:00,62.6,18.5,31.55,SW,225,13.0,16.0,18,0.00,,,0.00,meteohub,2013-09-26 23:02:00,
2013-09-26 17:07:00,62.6,18.5,31.55,NW,315,5.0,16.0,18,0.00,,,0.00,meteohub,2013-09-26 23:07:00,
2013-09-26 17:12:00,62.8,18.7,31.55,East,90,7.0,13.0,18,0.00,,,0.00,meteohub,2013-09-26 23:12:00,
2013-09-26 17:17:00,62.6,18.5,31.55,SE,135,9.0,15.0,18,0.00,,,0.00,meteohub,2013-09-26 23:17:00,
2013-09-26 17:22:00,62.4,19.6,31.55,East,90,11.0,15.0,19,0.00,,,0.00,meteohub,2013-09-26 23:22:00,
2013-09-26 17:27:00,61.9,19.2,31.55,SE,135,4.0,15.0,19,0.00,,,0.00,meteohub,2013-09-26 23:27:00,
2013-09-26 17:32:00,61.3,18.7,31.55,SE,135,6.0,12.0,19,0.00,,,0.00,meteohub,2013-09-26 23:32:00,
2013-09-26 17:37:00,60.8,18.3,31.55,SSE,158,6.0,12.0,19,0.00,,,0.00,meteohub,2013-09-26 23:37:00,
2013-09-26 17:42:00,60.3,20.1,31.55,South,180,9.0,15.0,21,0.00,,,0.00,meteohub,2013-09-26 23:42:00,
2013-09-26 17:47:00,59.9,19.9,31.55,SE,135,4.0,15.0,21,0.00,,,0.00,meteohub,2013-09-26 23:47:00,
2013-09-26 17:52:00,59.7,19.8,31.56,East,90,7.0,10.0,21,0.00,,,0.00,meteohub,2013-09-26 23:52:00,
2013-09-26 17:57:00,59.4,19.4,31.55,SE,135,10.0,10.0,21,0.00,,,0.00,meteohub,2013-09-26 23:57:00,
2013-09-26 18:03:00,59.2,19.2,31.56,SSW,203,6.0,10.0,21,0.00,,,0.00,meteohub,2013-09-27 00:03:00,
2013-09-26 18:10:00,58.5,19.8,31.56,SSE,158,8.0,10.0,22,0.00,,,0.00,meteohub,2013-09-27 00:10:00,
2013-09-26 18:15:00,58.1,19.4,31.55,SE,135,4.0,10.0,22,0.00,,,0.00,meteohub,2013-09-27 00:15:00,
2013-09-26 18:20:00,57.6,19.0,31.56,South,180,2.0,10.0,22,0.00,,,0.00,meteohub,2013-09-27 00:20:00,
2013-09-26 18:26:00,56.8,19.4,31.56,SW,225,4.0,8.0,23,0.00,,,0.00,meteohub,2013-09-27 00:26:00,
2013-09-26 18:31:00,56.7,19.2,31.56,SE,135,5.0,8.0,23,0.00,,,0.00,meteohub,2013-09-27 00:31:00,
2013-09-26 18:36:00,56.5,19.0,31.57,SW,225,4.0,8.0,23,0.00,,,0.00,meteohub,2013-09-27 00:36:00,
2013-09-26 18:41:00,56.3,19.9,31.57,South,180,4.0,9.0,24,0.00,,,0.00,meteohub,2013-09-27 00:41:00,
2013-09-26 18:46:00,55.9,19.6,31.57,South,180,6.0,9.0,24,0.00,,,0.00,meteohub,2013-09-27 00:46:00,
2013-09-26 18:51:00,55.8,19.6,31.57,SE,135,2.0,9.0,24,0.00,,,0.00,meteohub,2013-09-27 00:51:00,
2013-09-26 18:57:00,55.4,20.1,31.57,SE,135,4.0,6.0,25,0.00,,,0.00,meteohub,2013-09-27 00:57:00,
2013-09-26 19:02:00,55.4,20.1,31.57,SE,135,2.0,8.0,25,0.00,,,0.00,meteohub,2013-09-27 01:02:00,
2013-09-26 19:07:00,55.2,17.1,31.57,South,180,4.0,9.0,22,0.00,,,0.00,meteohub,2013-09-27 01:07:00,
2013-09-26 19:12:00,55.2,17.1,31.57,South,180,4.0,9.0,22,0.00,,,0.00,meteohub,2013-09-27 01:12:00,
2013-09-26 19:17:00,54.9,16.7,31.58,South,180,4.0,10.0,22,0.00,,,0.00,meteohub,2013-09-27 01:17:00,
2013-09-26 19:22:00,54.7,16.5,31.58,South,180,5.0,10.0,22,0.00,,,0.00,meteohub,2013-09-27 01:22:00,
2013-09-26 19:27:00,54.5,16.3,31.58,South,180,4.0,8.0,22,0.00,,,0.00,meteohub,2013-09-27 01:27:00,
2013-09-26 19:32:00,54.1,16.2,31.58,SE,135,4.0,8.0,22,0.00,,,0.00,meteohub,2013-09-27 01:32:00,
2013-09-26 19:37:00,54.0,16.0,31.58,South,180,8.0,8.0,22,0.00,,,0.00,meteohub,2013-09-27 01:37:00,
2013-09-26 19:42:00,54.0,16.0,31.58,East,90,3.0,8.0,22,0.00,,,0.00,meteohub,2013-09-27 01:42:00,
2013-09-26 19:47:00,53.6,15.6,31.59,SE,135,5.0,8.0,22,0.00,,,0.00,meteohub,2013-09-27 01:47:00,
2013-09-26 19:52:00,53.6,15.6,31.59,South,180,4.0,9.0,22,0.00,,,0.00,meteohub,2013-09-27 01:52:00,
2013-09-26 19:57:00,53.6,15.6,31.59,South,180,4.0,9.0,22,0.00,,,0.00,meteohub,2013-09-27 01:57:00,
2013-09-26 20:02:00,53.4,16.5,31.59,East,90,4.0,11.0,23,0.00,,,0.00,meteohub,2013-09-27 02:02:00,
2013-09-26 20:07:00,53.4,16.5,31.59,East,90,4.0,11.0,23,0.00,,,0.00,meteohub,2013-09-27 02:07:00,
2013-09-26 20:12:00,53.1,16.2,31.59,SE,135,4.0,11.0,23,0.00,,,0.00,meteohub,2013-09-27 02:12:00,
2013-09-26 20:17:00,53.1,16.2,31.60,South,180,4.0,11.0,23,0.00,,,0.00,meteohub,2013-09-27 02:17:00,
2013-09-26 20:22:00,53.1,16.2,31.60,SE,135,4.0,11.0,23,0.00,,,0.00,meteohub,2013-09-27 02:22:00,
2013-09-26 20:27:00,52.7,16.0,31.60,South,180,7.0,8.0,23,0.00,,,0.00,meteohub,2013-09-27 02:27:00,
2013-09-26 20:32:00,52.7,16.0,31.59,East,90,9.0,9.0,23,0.00,,,0.00,meteohub,2013-09-27 02:32:00,
2013-09-26 20:37:00,52.7,16.0,31.59,East,90,3.0,9.0,23,0.00,,,0.00,meteohub,2013-09-27 02:37:00,
2013-09-26 20:42:00,52.3,15.6,31.59,North,0,4.0,10.0,23,0.00,,,0.00,meteohub,2013-09-27 02:42:00,
2013-09-26 20:47:00,52.2,15.4,31.59,West,270,5.0,10.0,23,0.00,,,0.00,meteohub,2013-09-27 02:47:00,
2013-09-26 20:52:00,52.0,16.3,31.60,South,180,7.0,8.0,24,0.00,,,0.00,meteohub,2013-09-27 02:52:00,
2013-09-26 20:57:00,52.0,16.3,31.60,SE,135,4.0,10.0,24,0.00,,,0.00,meteohub,2013-09-27 02:57:00,
2013-09-26 21:02:00,51.8,15.1,31.60,SE,135,3.0,10.0,23,0.00,,,0.00,meteohub,2013-09-27 03:02:00,
2013-09-26 21:07:00,51.8,16.2,31.59,East,90,4.0,10.0,24,0.00,,,0.00,meteohub,2013-09-27 03:07:00,
2013-09-26 21:12:00,51.4,17.6,31.59,South,180,12.0,12.0,26,0.00,,,0.00,meteohub,2013-09-27 03:12:00,
2013-09-26 21:17:00,51.8,16.2,31.59,SW,225,6.0,12.0,24,0.00,,,0.00,meteohub,2013-09-27 03:17:00,
2013-09-26 21:22:00,51.8,16.2,31.59,East,90,8.0,12.0,24,0.00,,,0.00,meteohub,2013-09-27 03:22:00,
2013-09-26 21:27:00,51.8,16.2,31.60,East,90,3.0,12.0,24,0.00,,,0.00,meteohub,2013-09-27 03:27:00,
2013-09-26 21:32:00,51.6,16.9,31.60,South,180,3.0,8.0,25,0.00,,,0.00,meteohub,2013-09-27 03:32:00,
2013-09-26 21:37:00,51.4,17.6,31.59,East,90,5.0,9.0,26,0.00,,,0.00,meteohub,2013-09-27 03:37:00,
2013-09-26 21:42:00,51.1,15.4,31.59,SE,135,3.0,9.0,24,0.00,,,0.00,meteohub,2013-09-27 03:42:00,
2013-09-26 21:47:00,50.7,15.3,31.59,SE,135,2.0,9.0,24,0.00,,,0.00,meteohub,2013-09-27 03:47:00,
2013-09-26 21:52:00,50.4,14.9,31.59,WSW,248,5.0,7.0,24,0.00,,,0.00,meteohub,2013-09-27 03:52:00,
2013-09-26 21:57:00,50.4,15.8,31.59,SE,135,5.0,8.0,25,0.00,,,0.00,meteohub,2013-09-27 03:57:00,
2013-09-26 22:01:00,50.5,16.0,31.60,East,90,3.0,8.0,25,0.00,,,0.00,meteohub,2013-09-27 04:01:00,
2013-09-26 22:02:00,50.5,16.0,31.59,East,90,3.0,8.0,25,0.00,,,0.00,meteohub,2013-09-27 04:02:00,
2013-09-26 22:03:00,50.5,16.0,31.59,East,90,3.0,8.0,25,0.00,,,0.00,meteohub,2013-09-27 04:03:00,
2013-09-26 22:08:00,50.4,15.8,31.60,SE,135,4.0,8.0,25,0.00,,,0.00,meteohub,2013-09-27 04:08:00,
2013-09-26 22:13:00,50.4,16.7,31.59,South,180,5.0,8.0,26,0.00,,,0.00,meteohub,2013-09-27 04:13:00,
2013-09-26 22:19:00,50.7,17.1,31.59,SW,225,4.0,13.0,26,0.00,,,0.00,meteohub,2013-09-27 04:19:00,
2013-09-26 22:24:00,50.5,16.9,31.59,East,90,2.0,13.0,26,0.00,,,0.00,meteohub,2013-09-27 04:24:00,
2013-09-26 22:29:00,50.4,16.7,31.59,East,90,2.0,13.0,26,0.00,,,0.00,meteohub,2013-09-27 04:29:00,
2013-09-26 22:34:00,50.0,17.2,31.59,SSW,203,8.0,8.0,27,0.00,,,0.00,meteohub,2013-09-27 04:34:00,
2013-09-26 22:39:00,50.5,18.7,31.59,South,180,4.0,8.0,28,0.00,,,0.00,meteohub,2013-09-27 04:39:00,
2013-09-26 22:44:00,50.5,18.7,31.59,SE,135,7.0,8.0,28,0.00,,,0.00,meteohub,2013-09-27 04:44:00,
2013-09-26 22:50:00,50.7,19.6,31.59,SE,135,8.0,8.0,29,0.00,,,0.00,meteohub,2013-09-27 04:50:00,
2013-09-26 22:55:00,50.7,19.6,31.59,East,90,4.0,8.0,29,0.00,,,0.00,meteohub,2013-09-27 04:55:00,
2013-09-26 23:00:00,50.7,20.5,31.59,East,90,4.0,11.0,30,0.00,,,0.00,meteohub,2013-09-27 05:00:00,
2013-09-26 23:05:00,50.5,21.7,31.59,SW,225,8.0,15.0,32,0.00,,,0.00,meteohub,2013-09-27 05:05:00,
2013-09-26 23:10:00,50.9,22.8,31.59,SE,135,6.0,15.0,33,0.00,,,0.00,meteohub,2013-09-27 05:10:00,
2013-09-26 23:15:00,51.1,22.3,31.59,NE,45,5.0,15.0,32,0.00,,,0.00,meteohub,2013-09-27 05:15:00,
2013-09-26 23:21:00,50.9,21.4,31.59,SW,225,5.0,11.0,31,0.00,,,0.00,meteohub,2013-09-27 05:21:00,
2013-09-26 23:26:00,50.2,21.4,31.59,South,180,3.0,8.0,32,0.00,,,0.00,meteohub,2013-09-27 05:26:00,
2013-09-26 23:31:00,49.8,22.6,31.59,NE,45,2.0,6.0,34,0.00,,,0.00,meteohub,2013-09-27 05:31:00,
2013-09-26 23:36:00,49.5,22.3,31.59,East,90,2.0,6.0,34,0.00,,,0.00,meteohub,2013-09-27 05:36:00,
2013-09-26 23:41:00,48.9,21.7,31.59,NE,45,4.0,4.0,34,0.00,,,0.00,meteohub,2013-09-27 05:41:00,
2013-09-26 23:46:00,48.4,22.6,31.59,North,0,4.0,6.0,36,0.00,,,0.00,meteohub,2013-09-27 05:46:00,
2013-09-26 23:52:00,48.0,23.5,31.59,East,90,3.0,6.0,38,0.00,,,0.00,meteohub,2013-09-27 05:52:00,
2013-09-26 23:57:00,48.2,23.7,31.59,NE,45,4.0,6.0,38,0.00,,,0.00,meteohub,2013-09-27 05:57:00,